Time,TemperatureF,DewpointF,PressureIn,WindDirection,WindDirectionDegrees,WindSpeedMPH,WindSpeedGustMPH,Humidity,HourlyPrecipIn,Conditions,Clouds,dailyrainin,SolarRadiationWatts/m^2,SoftwareType,DateUTC
2013-02-12 00:02:00,56.0,19.0,-100.00,West,275,7.0,25.0,23,0.00,,,0.04,15.000000,,2013-02-12 00:02:00,
2013-02-12 00:12:00,56.0,19.0,-100.00,West,275,7.0,25.0,23,0.00,,,0.04,15.000000,,2013-02-12 00:12:00,
2013-02-12 00:42:00,54.0,17.0,-100.00,West,262,12.0,21.0,23,0.00,,,0.04,0.000000,,2013-02-12 00:42:00,
2013-02-12 00:52:00,54.0,17.0,-100.00,West,262,12.0,21.0,23,0.00,,,0.04,0.000000,,2013-02-12 00:52:00,
2013-02-12 01:02:00,54.0,17.0,-100.00,West,262,12.0,21.0,23,0.00,,,0.04,0.000000,,2013-02-12 01:02:00,
2013-02-12 01:12:00,54.0,17.0,-100.00,West,262,12.0,21.0,23,0.00,,,0.04,0.000000,,2013-02-12 01:12:00,
2013-02-12 01:42:00,51.0,17.0,-100.00,West,272,10.0,24.0,26,0.00,,,0.04,0.000000,,2013-02-12 01:42:00,
2013-02-12 01:52:00,51.0,17.0,-100.00,West,272,10.0,24.0,26,0.00,,,0.04,0.000000,,2013-02-12 01:52:00,
2013-02-12 02:02:00,51.0,17.0,-100.00,West,272,10.0,24.0,26,0.00,,,0.04,0.000000,,2013-02-12 02:02:00,
2013-02-12 02:12:00,51.0,17.0,-100.00,West,272,10.0,24.0,26,0.00,,,0.04,0.000000,,2013-02-12 02:12:00,
2013-02-12 02:42:00,48.0,20.0,-100.00,West,273,10.0,24.0,33,0.00,,,0.04,0.000000,,2013-02-12 02:42:00,
2013-02-12 02:53:00,48.0,20.0,-100.00,West,273,10.0,24.0,33,0.00,,,0.04,0.000000,,2013-02-12 02:53:00,
2013-02-12 03:02:00,48.0,20.0,-100.00,West,273,10.0,24.0,33,0.00,,,0.04,0.000000,,2013-02-12 03:02:00,
2013-02-12 03:11:00,48.0,20.0,-100.00,West,273,10.0,24.0,33,0.00,,,0.04,0.000000,,2013-02-12 03:11:00,
2013-02-12 03:32:00,46.0,24.0,-100.00,West,280,11.0,22.0,41,0.00,,,0.03,0.000000,,2013-02-12 03:32:00,
2013-02-12 03:42:00,46.0,24.0,-100.00,West,280,11.0,22.0,41,0.00,,,0.03,0.000000,,2013-02-12 03:42:00,
2013-02-12 03:52:00,46.0,24.0,-100.00,West,280,11.0,22.0,41,0.00,,,0.03,0.000000,,2013-02-12 03:52:00,
2013-02-12 04:01:00,46.0,24.0,-100.00,West,280,11.0,22.0,41,0.00,,,0.03,0.000000,,2013-02-12 04:01:00,
2013-02-12 04:11:00,46.0,24.0,-100.00,West,280,11.0,22.0,41,0.00,,,0.03,0.000000,,2013-02-12 04:11:00,
2013-02-12 04:32:00,45.0,23.0,-100.00,West,269,9.0,23.0,41,0.00,,,0.02,0.000000,,2013-02-12 04:32:00,
2013-02-12 04:42:00,45.0,23.0,-100.00,West,269,9.0,23.0,41,0.00,,,0.02,0.000000,,2013-02-12 04:42:00,
2013-02-12 04:52:00,45.0,23.0,-100.00,West,269,9.0,23.0,41,0.00,,,0.02,0.000000,,2013-02-12 04:52:00,
2013-02-12 05:01:00,45.0,23.0,-100.00,West,269,9.0,23.0,41,0.00,,,0.02,0.000000,,2013-02-12 05:01:00,
2013-02-12 05:11:00,45.0,23.0,-100.00,West,269,9.0,23.0,41,0.00,,,0.02,0.000000,,2013-02-12 05:11:00,
2013-02-12 05:42:00,44.0,23.0,-100.00,West,270,9.0,20.0,43,0.00,,,0.02,0.000000,,2013-02-12 05:42:00,
2013-02-12 05:52:00,44.0,23.0,-100.00,West,270,9.0,20.0,43,0.00,,,0.02,0.000000,,2013-02-12 05:52:00,
2013-02-12 06:02:00,44.0,23.0,-100.00,West,270,9.0,20.0,43,0.00,,,0.02,0.000000,,2013-02-12 06:02:00,
2013-02-12 06:12:00,44.0,23.0,-100.00,West,270,9.0,20.0,43,0.00,,,0.02,0.000000,,2013-02-12 06:12:00,
2013-02-12 06:32:00,44.0,23.0,-100.00,West,273,9.0,21.0,44,0.00,,,0.02,0.000000,,2013-02-12 06:32:00,
2013-02-12 06:42:00,44.0,23.0,-100.00,West,273,9.0,21.0,44,0.00,,,0.02,0.000000,,2013-02-12 06:42:00,
2013-02-12 06:52:00,44.0,23.0,-100.00,West,273,9.0,21.0,44,0.00,,,0.02,0.000000,,2013-02-12 06:52:00,
2013-02-12 07:02:00,44.0,23.0,-100.00,West,273,9.0,21.0,44,0.00,,,0.02,0.000000,,2013-02-12 07:02:00,
2013-02-12 07:12:00,44.0,23.0,-100.00,West,273,9.0,21.0,44,0.00,,,0.02,0.000000,,2013-02-12 07:12:00,
2013-02-12 07:42:00,42.0,22.0,-100.00,West,264,7.0,23.0,44,0.00,,,0.02,0.000000,,2013-02-12 07:42:00,
2013-02-12 07:52:00,42.0,22.0,-100.00,West,264,7.0,23.0,44,0.00,,,0.02,0.000000,,2013-02-12 07:52:00,
2013-02-12 08:01:00,42.0,22.0,-100.00,West,264,7.0,23.0,44,0.00,,,0.02,0.000000,,2013-02-12 08:01:00,
2013-02-12 08:11:00,42.0,22.0,-100.00,West,264,7.0,23.0,44,0.00,,,0.02,0.000000,,2013-02-12 08:11:00,
2013-02-12 08:42:00,41.0,22.0,-100.00,WSW,253,8.0,18.0,46,0.00,,,0.02,0.000000,,2013-02-12 08:42:00,
2013-02-12 08:52:00,41.0,22.0,-100.00,WSW,253,8.0,18.0,46,0.00,,,0.02,0.000000,,2013-02-12 08:52:00,
2013-02-12 09:02:00,41.0,22.0,-100.00,WSW,253,8.0,18.0,46,0.00,,,0.02,0.000000,,2013-02-12 09:02:00,
2013-02-12 09:11:00,41.0,22.0,-100.00,WSW,253,8.0,18.0,46,0.00,,,0.02,0.000000,,2013-02-12 09:11:00,
2013-02-12 09:42:00,39.0,22.0,-100.00,West,266,8.0,15.0,50,0.00,,,0.02,0.000000,,2013-02-12 09:42:00,
2013-02-12 09:52:00,39.0,22.0,-100.00,West,266,8.0,15.0,50,0.00,,,0.02,0.000000,,2013-02-12 09:52:00,
2013-02-12 10:02:00,39.0,22.0,-100.00,West,266,8.0,15.0,50,0.00,,,0.02,0.000000,,2013-02-12 10:02:00,
2013-02-12 10:11:00,39.0,22.0,-100.00,West,266,8.0,15.0,50,0.00,,,0.02,0.000000,,2013-02-12 10:11:00,
2013-02-12 10:43:00,38.0,22.0,-100.00,WSW,251,7.0,15.0,53,0.00,,,0.02,0.000000,,2013-02-12 10:43:00,
2013-02-12 10:52:00,38.0,22.0,-100.00,WSW,251,7.0,15.0,53,0.00,,,0.02,0.000000,,2013-02-12 10:52:00,
2013-02-12 11:02:00,38.0,22.0,-100.00,WSW,251,7.0,15.0,53,0.00,,,0.02,0.000000,,2013-02-12 11:02:00,
2013-02-12 11:11:00,38.0,22.0,-100.00,WSW,251,7.0,15.0,53,0.00,,,0.02,0.000000,,2013-02-12 11:11:00,
2013-02-12 11:42:00,37.0,22.0,-100.00,WSW,250,4.0,17.0,55,0.00,,,0.02,0.000000,,2013-02-12 11:42:00,
2013-02-12 11:53:00,37.0,22.0,-100.00,WSW,250,4.0,17.0,55,0.00,,,0.02,0.000000,,2013-02-12 11:53:00,
2013-02-12 12:02:00,37.0,22.0,-100.00,WSW,250,4.0,17.0,55,0.00,,,0.02,0.000000,,2013-02-12 12:02:00,
2013-02-12 12:11:00,37.0,22.0,-100.00,WSW,250,4.0,17.0,55,0.00,,,0.02,0.000000,,2013-02-12 12:11:00,
2013-02-12 12:32:00,36.0,22.0,-100.00,SW,233,3.0,10.0,57,0.00,,,0.02,0.000000,,2013-02-12 12:32:00,
2013-02-12 12:42:00,36.0,22.0,-100.00,SW,233,3.0,10.0,57,0.00,,,0.02,0.000000,,2013-02-12 12:42:00,
2013-02-12 12:53:00,36.0,22.0,-100.00,SW,233,3.0,10.0,57,0.00,,,0.02,0.000000,,2013-02-12 12:53:00,
2013-02-12 13:02:00,36.0,22.0,-100.00,SW,233,3.0,10.0,57,0.00,,,0.02,0.000000,,2013-02-12 13:02:00,
2013-02-12 13:11:00,36.0,22.0,-100.00,SW,233,3.0,10.0,57,0.00,,,0.02,0.000000,,2013-02-12 13:11:00,
2013-02-12 13:42:00,37.0,24.0,-100.00,WSW,248,3.0,8.0,60,0.00,,,0.01,34.000000,,2013-02-12 13:42:00,
2013-02-12 13:52:00,37.0,24.0,-100.00,WSW,248,3.0,8.0,60,0.00,,,0.01,34.000000,,2013-02-12 13:52:00,
2013-02-12 14:01:00,37.0,24.0,-100.00,WSW,248,3.0,8.0,60,0.00,,,0.01,34.000000,,2013-02-12 14:01:00,
2013-02-12 14:12:00,37.0,24.0,-100.00,WSW,248,3.0,8.0,60,0.00,,,0.01,34.000000,,2013-02-12 14:12:00,
2013-02-12 14:32:00,40.0,24.0,-100.00,West,262,8.0,16.0,53,0.00,,,0.01,201.000000,,2013-02-12 14:32:00,
2013-02-12 14:42:00,40.0,24.0,-100.00,West,262,8.0,16.0,53,0.00,,,0.01,201.000000,,2013-02-12 14:42:00,
2013-02-12 14:52:00,40.0,24.0,-100.00,West,262,8.0,16.0,53,0.00,,,0.01,201.000000,,2013-02-12 14:52:00,
2013-02-12 15:02:00,40.0,24.0,-100.00,West,262,8.0,16.0,53,0.00,,,0.01,201.000000,,2013-02-12 15:02:00,
2013-02-12 15:11:00,40.0,24.0,-100.00,West,262,8.0,16.0,53,0.00,,,0.01,201.000000,,2013-02-12 15:11:00,
2013-02-12 15:42:00,42.0,24.0,-100.00,West,264,8.0,15.0,49,0.00,,,0.00,358.000000,,2013-02-12 15:42:00,
2013-02-12 15:52:00,42.0,24.0,-100.00,West,264,8.0,15.0,49,0.00,,,0.00,358.000000,,2013-02-12 15:52:00,
2013-02-12 16:02:00,42.0,24.0,-100.00,West,264,8.0,15.0,49,0.00,,,0.00,358.000000,,2013-02-12 16:02:00,
2013-02-12 16:11:00,42.0,24.0,-100.00,West,264,8.0,15.0,49,0.00,,,0.00,358.000000,,2013-02-12 16:11:00,
2013-02-12 16:32:00,44.0,22.0,-100.00,WSW,257,7.0,15.0,41,0.00,,,0.00,473.000000,,2013-02-12 16:32:00,
2013-02-12 16:42:00,44.0,22.0,-100.00,WSW,257,7.0,15.0,41,0.00,,,0.00,473.000000,,2013-02-12 16:42:00,
2013-02-12 16:52:00,44.0,22.0,-100.00,WSW,257,7.0,15.0,41,0.00,,,0.00,473.000000,,2013-02-12 16:52:00,
2013-02-12 17:01:00,44.0,22.0,-100.00,WSW,257,7.0,15.0,41,0.00,,,0.00,473.000000,,2013-02-12 17:01:00,
2013-02-12 17:12:00,44.0,22.0,-100.00,WSW,257,7.0,15.0,41,0.00,,,0.00,473.000000,,2013-02-12 17:12:00,
2013-02-12 17:42:00,46.0,22.0,-100.00,West,263,7.0,14.0,39,0.00,,,0.00,540.000000,,2013-02-12 17:42:00,
2013-02-12 17:52:00,46.0,22.0,-100.00,West,263,7.0,14.0,39,0.00,,,0.00,540.000000,,2013-02-12 17:52:00,
2013-02-12 18:02:00,46.0,22.0,-100.00,West,263,7.0,14.0,39,0.00,,,0.00,540.000000,,2013-02-12 18:02:00,
2013-02-12 18:12:00,46.0,22.0,-100.00,West,263,7.0,14.0,39,0.00,,,0.00,540.000000,,2013-02-12 18:12:00,
2013-02-12 18:42:00,48.0,21.0,-100.00,West,261,7.0,14.0,34,0.00,,,0.00,556.000000,,2013-02-12 18:42:00,
2013-02-12 18:52:00,48.0,21.0,-100.00,West,261,7.0,14.0,34,0.00,,,0.00,556.000000,,2013-02-12 18:52:00,
2013-02-12 19:02:00,48.0,21.0,-100.00,West,261,7.0,14.0,34,0.00,,,0.00,556.000000,,2013-02-12 19:02:00,
2013-02-12 19:11:00,48.0,21.0,-100.00,West,261,7.0,14.0,34,0.00,,,0.00,556.000000,,2013-02-12 19:11:00,
2013-02-12 19:42:00,52.0,22.0,-100.00,WSW,247,6.0,12.0,31,0.00,,,-99.99,519.000000,,2013-02-12 19:42:00,
2013-02-12 19:52:00,52.0,22.0,-100.00,WSW,247,6.0,12.0,31,0.00,,,-99.99,519.000000,,2013-02-12 19:52:00,
2013-02-12 20:01:00,52.0,22.0,-100.00,WSW,247,6.0,12.0,31,0.00,,,-99.99,519.000000,,2013-02-12 20:01:00,
2013-02-12 20:11:00,52.0,22.0,-100.00,WSW,247,6.0,12.0,31,0.00,,,-99.99,519.000000,,2013-02-12 20:11:00,
2013-02-12 20:42:00,52.0,19.0,-100.00,West,259,8.0,19.0,27,0.00,,,0.00,432.000000,,2013-02-12 20:42:00,
2013-02-12 20:52:00,52.0,19.0,-100.00,West,259,8.0,19.0,27,0.00,,,0.00,432.000000,,2013-02-12 20:52:00,
2013-02-12 21:02:00,52.0,19.0,-100.00,West,259,8.0,19.0,27,0.00,,,0.00,432.000000,,2013-02-12 21:02:00,
2013-02-12 21:11:00,52.0,19.0,-100.00,West,259,8.0,19.0,27,0.00,,,0.00,432.000000,,2013-02-12 21:11:00,
2013-02-12 21:42:00,51.0,16.0,-100.00,WSW,253,6.0,13.0,25,0.00,,,0.00,242.000000,,2013-02-12 21:42:00,
2013-02-12 21:52:00,51.0,16.0,-100.00,WSW,253,6.0,13.0,25,0.00,,,0.00,242.000000,,2013-02-12 21:52:00,
2013-02-12 22:01:00,51.0,16.0,-100.00,WSW,253,6.0,13.0,25,0.00,,,0.00,242.000000,,2013-02-12 22:01:00,
2013-02-12 22:12:00,51.0,16.0,-100.00,WSW,253,6.0,13.0,25,0.00,,,0.00,242.000000,,2013-02-12 22:12:00,
2013-02-12 22:42:00,49.0,17.0,-100.00,West,268,6.0,12.0,28,0.00,,,0.00,79.000000,,2013-02-12 22:42:00,
2013-02-12 22:52:00,49.0,17.0,-100.00,West,268,6.0,12.0,28,0.00,,,0.00,79.000000,,2013-02-12 22:52:00,
2013-02-12 23:02:00,49.0,17.0,-100.00,West,268,6.0,12.0,28,0.00,,,0.00,79.000000,,2013-02-12 23:02:00,
2013-02-12 23:11:00,49.0,17.0,-100.00,West,268,6.0,12.0,28,0.00,,,0.00,79.000000,,2013-02-12 23:11:00,
2013-02-12 23:42:00,47.0,16.0,-100.00,WSW,252,4.0,11.0,28,0.00,,,0.00,12.000000,,2013-02-12 23:42:00,
2013-02-12 23:52:00,47.0,16.0,-100.00,WSW,252,4.0,11.0,28,0.00,,,0.00,12.000000,,2013-02-12 23:52:00,